Time,TemperatureF,DewpointF,PressureIn,WindDirection,WindDirectionDegrees,WindSpeedMPH,WindSpeedGustMPH,Humidity,HourlyPrecipIn,Conditions,Clouds,dailyrainin,SolarRadiationWatts/m^2,SoftwareType,DateUTC
2013-01-06 00:11:00,40.8,35.0,30.07,South,173,0.0,3.0,79,0.00,,,0.00,0,weatherlink.com 1.10,2013-01-06 08:11:00,
2013-01-06 00:26:00,40.5,35.0,30.07,South,173,0.0,0.0,80,0.00,,,0.00,0,weatherlink.com 1.10,2013-01-06 08:26:00,
2013-01-06 00:41:00,40.2,35.0,30.07,South,173,0.0,0.0,81,0.00,,,0.00,0,weatherlink.com 1.10,2013-01-06 08:41:00,
2013-01-06 00:56:00,40.1,35.0,30.06,South,173,0.0,0.0,81,0.00,,,0.00,0,weatherlink.com 1.10,2013-01-06 08:56:00,
2013-01-06 01:11:00,40.1,35.0,30.07,South,173,0.0,0.0,81,0.00,,,0.00,0,weatherlink.com 1.10,2013-01-06 09:11:00,
2013-01-06 01:26:00,40.1,35.0,30.06,South,173,0.0,0.0,82,0.00,,,0.00,0,weatherlink.com 1.10,2013-01-06 09:26:00,
2013-01-06 01:41:00,39.9,35.0,30.07,South,173,0.0,0.0,83,0.00,,,0.00,0,weatherlink.com 1.10,2013-01-06 09:41:00,
2013-01-06 01:56:00,39.6,35.0,30.07,South,173,0.0,0.0,83,0.00,,,0.00,0,weatherlink.com 1.10,2013-01-06 09:56:00,
2013-01-06 02:11:00,39.6,35.0,30.07,South,173,0.0,0.0,83,0.00,,,0.00,0,weatherlink.com 1.10,2013-01-06 10:11:00,
2013-01-06 02:26:00,39.6,35.0,30.08,South,173,0.0,0.0,84,0.00,,,0.00,0,weatherlink.com 1.10,2013-01-06 10:26:00,
2013-01-06 02:41:00,39.8,35.0,30.09,South,173,0.0,0.0,84,0.01,,,0.01,0,weatherlink.com 1.10,2013-01-06 10:41:00,
2013-01-06 02:56:00,39.8,36.0,30.09,South,173,0.0,0.0,85,0.02,,,0.02,0,weatherlink.com 1.10,2013-01-06 10:56:00,
2013-01-06 03:11:00,39.8,36.0,30.08,SE,146,0.0,0.0,86,0.03,,,0.03,0,weatherlink.com 1.10,2013-01-06 11:11:00,
2013-01-06 03:26:00,39.6,36.0,30.07,SE,146,0.0,0.0,87,0.04,,,0.04,0,weatherlink.com 1.10,2013-01-06 11:26:00,
2013-01-06 03:41:00,39.6,36.0,30.07,SE,146,0.0,1.0,87,0.03,,,0.04,0,weatherlink.com 1.10,2013-01-06 11:41:00,
2013-01-06 04:11:00,39.3,36.0,30.07,SE,146,0.0,0.0,88,0.01,,,0.04,0,weatherlink.com 1.10,2013-01-06 12:11:00,
2013-01-06 04:26:00,39.1,36.0,30.07,SE,143,1.0,2.0,88,0.00,,,0.04,0,weatherlink.com 1.10,2013-01-06 12:26:00,
2013-01-06 04:41:00,38.9,36.0,30.07,SE,143,0.0,1.0,88,0.01,,,0.05,0,weatherlink.com 1.10,2013-01-06 12:41:00,
2013-01-06 04:57:00,38.9,36.0,30.07,SE,143,0.0,2.0,88,0.01,,,0.05,0,weatherlink.com 1.10,2013-01-06 12:57:00,
2013-01-06 05:12:00,38.9,36.0,30.06,SE,143,1.0,2.0,88,0.01,,,0.05,0,weatherlink.com 1.10,2013-01-06 13:12:00,
2013-01-06 05:27:00,38.9,36.0,30.06,NE,55,0.0,3.0,88,0.01,,,0.05,0,weatherlink.com 1.10,2013-01-06 13:27:00,
2013-01-06 05:42:00,38.9,36.0,30.06,NE,55,0.0,0.0,88,0.00,,,0.05,0,weatherlink.com 1.10,2013-01-06 13:42:00,
2013-01-06 05:57:00,38.9,36.0,30.06,NE,55,0.0,2.0,88,0.00,,,0.05,0,weatherlink.com 1.10,2013-01-06 13:57:00,
2013-01-06 06:12:00,38.9,36.0,30.07,NE,55,0.0,2.0,88,0.00,,,0.05,0,weatherlink.com 1.10,2013-01-06 14:12:00,
2013-01-06 06:42:00,38.6,35.0,30.08,NE,55,0.0,0.0,88,0.00,,,0.05,0,weatherlink.com 1.10,2013-01-06 14:42:00,
2013-01-06 06:57:00,38.3,35.0,30.09,NE,55,0.0,0.0,88,0.00,,,0.05,0,weatherlink.com 1.10,2013-01-06 14:57:00,
2013-01-06 07:12:00,38.2,35.0,30.09,NE,55,0.0,0.0,89,0.00,,,0.05,0,weatherlink.com 1.10,2013-01-06 15:12:00,
2013-01-06 07:27:00,38.2,35.0,30.09,NE,55,0.0,0.0,89,0.00,,,0.05,0,weatherlink.com 1.10,2013-01-06 15:27:00,
2013-01-06 07:42:00,38.2,35.0,30.10,NE,55,0.0,0.0,89,0.00,,,0.05,9,weatherlink.com 1.10,2013-01-06 15:42:00,
2013-01-06 07:57:00,38.3,36.0,30.09,NE,55,0.0,0.0,90,0.00,,,0.05,42,weatherlink.com 1.10,2013-01-06 15:57:00,
2013-01-06 08:12:00,38.5,36.0,30.09,NE,55,1.0,1.0,90,0.00,,,0.05,25,weatherlink.com 1.10,2013-01-06 16:12:00,
2013-01-06 08:27:00,38.5,36.0,30.10,NE,55,0.0,0.0,90,0.00,,,0.05,19,weatherlink.com 1.10,2013-01-06 16:27:00,
2013-01-06 08:42:00,38.5,36.0,30.11,NE,55,0.0,0.0,90,0.00,,,0.05,5,weatherlink.com 1.10,2013-01-06 16:42:00,
2013-01-06 08:57:00,38.5,36.0,30.11,NE,55,0.0,0.0,91,0.00,,,0.05,0,weatherlink.com 1.10,2013-01-06 16:57:00,
2013-01-06 09:12:00,38.5,36.0,30.12,NE,55,0.0,0.0,91,0.00,,,0.05,39,weatherlink.com 1.10,2013-01-06 17:12:00,
2013-01-06 09:27:00,38.5,36.0,30.13,NE,55,0.0,0.0,91,0.00,,,0.05,26,weatherlink.com 1.10,2013-01-06 17:27:00,
2013-01-06 09:42:00,38.6,36.0,30.14,NE,55,0.0,0.0,91,0.00,,,0.05,39,weatherlink.com 1.10,2013-01-06 17:42:00,
2013-01-06 09:57:00,38.9,37.0,30.15,NE,55,0.0,0.0,91,0.00,,,0.05,54,weatherlink.com 1.10,2013-01-06 17:57:00,
2013-01-06 10:12:00,39.1,37.0,30.15,NE,55,0.0,0.0,91,0.00,,,0.05,67,weatherlink.com 1.10,2013-01-06 18:12:00,
2013-01-06 10:27:00,39.5,37.0,30.14,NE,55,0.0,0.0,91,0.00,,,0.05,91,weatherlink.com 1.10,2013-01-06 18:27:00,
2013-01-06 10:42:00,40.1,38.0,30.14,NE,55,0.0,0.0,92,0.00,,,0.05,91,weatherlink.com 1.10,2013-01-06 18:42:00,
2013-01-06 10:57:00,40.8,39.0,30.14,NE,55,0.0,0.0,92,0.00,,,0.05,91,weatherlink.com 1.10,2013-01-06 18:57:00,
2013-01-06 11:12:00,41.3,39.0,30.13,NE,55,0.0,0.0,91,0.00,,,0.05,132,weatherlink.com 1.10,2013-01-06 19:12:00,
2013-01-06 11:27:00,41.2,39.0,30.13,NE,55,0.0,0.0,90,0.00,,,0.05,72,weatherlink.com 1.10,2013-01-06 19:27:00,
2013-01-06 11:42:00,41.5,39.0,30.12,North,349,0.0,3.0,89,0.00,,,0.05,109,weatherlink.com 1.10,2013-01-06 19:42:00,
2013-01-06 11:57:00,41.6,39.0,30.12,North,349,0.0,2.0,89,0.00,,,0.05,72,weatherlink.com 1.10,2013-01-06 19:57:00,
2013-01-06 12:12:00,41.6,39.0,30.11,North,349,0.0,1.0,89,0.00,,,0.05,90,weatherlink.com 1.10,2013-01-06 20:12:00,
2013-01-06 12:27:00,41.6,39.0,30.11,North,349,0.0,2.0,89,0.00,,,0.05,56,weatherlink.com 1.10,2013-01-06 20:27:00,
2013-01-06 12:42:00,41.6,38.0,30.11,West,279,0.0,2.0,88,0.00,,,0.05,39,weatherlink.com 1.10,2013-01-06 20:42:00,
2013-01-06 12:57:00,41.6,38.0,30.11,SE,139,0.0,2.0,88,0.00,,,0.05,148,weatherlink.com 1.10,2013-01-06 20:57:00,
2013-01-06 13:12:00,42.5,39.0,30.09,NE,51,0.0,3.0,86,0.00,,,0.05,167,weatherlink.com 1.10,2013-01-06 21:12:00,
2013-01-06 13:27:00,43.3,39.0,30.10,South,176,0.0,2.0,83,0.00,,,0.05,151,weatherlink.com 1.10,2013-01-06 21:27:00,
2013-01-06 13:42:00,44.2,39.0,30.10,South,176,1.0,2.0,81,0.00,,,0.05,130,weatherlink.com 1.10,2013-01-06 21:42:00,
2013-01-06 13:57:00,44.2,38.0,30.11,South,176,0.0,1.0,78,0.00,,,0.05,132,weatherlink.com 1.10,2013-01-06 21:57:00,
2013-01-06 14:12:00,44.3,38.0,30.11,South,176,0.0,0.0,79,0.00,,,0.05,137,weatherlink.com 1.10,2013-01-06 22:12:00,
2013-01-06 14:27:00,44.9,38.0,30.11,South,176,0.0,1.0,76,0.00,,,0.05,302,weatherlink.com 1.10,2013-01-06 22:27:00,
2013-01-06 14:42:00,44.9,38.0,30.10,NE,47,0.0,1.0,78,0.00,,,0.05,51,weatherlink.com 1.10,2013-01-06 22:42:00,
2013-01-06 14:57:00,45.1,37.0,30.10,NE,47,0.0,0.0,74,0.00,,,0.05,155,weatherlink.com 1.10,2013-01-06 22:57:00,
2013-01-06 15:12:00,46.0,39.0,30.10,NE,47,0.0,0.0,75,0.00,,,0.05,65,weatherlink.com 1.10,2013-01-06 23:12:00,
2013-01-06 15:27:00,45.8,38.0,30.10,NE,47,0.0,0.0,74,0.00,,,0.05,70,weatherlink.com 1.10,2013-01-06 23:27:00,
2013-01-06 15:42:00,45.5,37.0,30.10,NNE,21,0.0,2.0,73,0.00,,,0.05,81,weatherlink.com 1.10,2013-01-06 23:42:00,
2013-01-06 15:57:00,45.7,38.0,30.10,NNE,21,0.0,0.0,74,0.00,,,0.05,44,weatherlink.com 1.10,2013-01-06 23:57:00,
2013-01-06 16:12:00,45.7,38.0,30.11,NNE,21,0.0,0.0,75,0.00,,,0.05,37,weatherlink.com 1.10,2013-01-07 00:12:00,
2013-01-06 16:27:00,45.4,38.0,30.11,NNE,20,0.0,0.0,75,0.00,,,0.05,14,weatherlink.com 1.10,2013-01-07 00:27:00,
2013-01-06 16:42:00,45.1,38.0,30.11,NNE,20,0.0,0.0,76,0.00,,,0.05,12,weatherlink.com 1.10,2013-01-07 00:42:00,
2013-01-06 16:57:00,44.3,38.0,30.11,NNE,20,0.0,0.0,77,0.00,,,0.05,0,weatherlink.com 1.10,2013-01-07 00:57:00,
2013-01-06 17:12:00,43.6,37.0,30.11,NNE,21,0.0,0.0,77,0.00,,,0.05,0,weatherlink.com 1.10,2013-01-07 01:12:00,
2013-01-06 17:27:00,42.6,37.0,30.11,NNE,20,0.0,0.0,79,0.00,,,0.05,0,weatherlink.com 1.10,2013-01-07 01:27:00,
2013-01-06 17:42:00,42.2,37.0,30.11,NNE,14,0.0,2.0,82,0.00,,,0.05,0,weatherlink.com 1.10,2013-01-07 01:42:00,
2013-01-06 17:57:00,42.1,38.0,30.11,NNE,14,0.0,0.0,84,0.00,,,0.05,0,weatherlink.com 1.10,2013-01-07 01:57:00,
2013-01-06 18:12:00,42.1,38.0,30.12,NW,306,0.0,2.0,85,0.00,,,0.05,0,weatherlink.com 1.10,2013-01-07 02:12:00,
2013-01-06 18:27:00,41.9,38.0,30.13,WNW,292,0.0,2.0,86,0.00,,,0.05,0,weatherlink.com 1.10,2013-01-07 02:27:00,
2013-01-06 18:42:00,41.9,38.0,30.13,WNW,292,0.0,2.0,87,0.00,,,0.05,0,weatherlink.com 1.10,2013-01-07 02:42:00,
2013-01-06 18:57:00,41.8,38.0,30.13,WNW,292,0.0,0.0,87,0.00,,,0.05,0,weatherlink.com 1.10,2013-01-07 02:57:00,
2013-01-06 19:12:00,41.6,38.0,30.13,WNW,292,0.0,0.0,88,0.00,,,0.05,0,weatherlink.com 1.10,2013-01-07 03:12:00,
2013-01-06 19:27:00,41.5,38.0,30.12,WNW,286,0.0,0.0,88,0.00,,,0.05,0,weatherlink.com 1.10,2013-01-07 03:27:00,
2013-01-06 19:42:00,41.1,38.0,30.12,WNW,286,0.0,0.0,88,0.00,,,0.05,0,weatherlink.com 1.10,2013-01-07 03:42:00,
2013-01-06 19:57:00,40.6,37.0,30.13,WNW,286,0.0,0.0,88,0.00,,,0.05,0,weatherlink.com 1.10,2013-01-07 03:57:00,
2013-01-06 20:12:00,40.3,37.0,30.13,WNW,286,0.0,2.0,88,0.00,,,0.05,0,weatherlink.com 1.10,2013-01-07 04:12:00,
2013-01-06 20:27:00,40.1,37.0,30.13,NE,36,0.0,3.0,88,0.00,,,0.05,0,weatherlink.com 1.10,2013-01-07 04:27:00,
2013-01-06 20:42:00,39.5,36.0,30.15,NE,36,0.0,0.0,88,0.00,,,0.05,0,weatherlink.com 1.10,2013-01-07 04:42:00,
2013-01-06 20:57:00,39.5,36.0,30.15,NE,36,0.0,2.0,88,0.00,,,0.05,0,weatherlink.com 1.10,2013-01-07 04:57:00,
2013-01-06 21:13:00,39.6,37.0,30.15,NE,36,0.0,2.0,89,0.00,,,0.05,0,weatherlink.com 1.10,2013-01-07 05:13:00,
2013-01-06 21:27:00,39.1,36.0,30.14,NE,36,0.0,2.0,88,0.00,,,0.05,0,weatherlink.com 1.10,2013-01-07 05:27:00,
2013-01-06 21:42:00,39.1,36.0,30.13,NE,36,0.0,1.0,89,0.00,,,0.05,0,weatherlink.com 1.10,2013-01-07 05:42:00,
2013-01-06 21:57:00,39.1,36.0,30.13,NE,36,0.0,1.0,89,0.00,,,0.05,0,weatherlink.com 1.10,2013-01-07 05:57:00,
2013-01-06 22:12:00,38.2,35.0,30.13,NE,36,0.0,2.0,89,0.00,,,0.05,0,weatherlink.com 1.10,2013-01-07 06:12:00,
2013-01-06 22:27:00,37.9,35.0,30.12,NE,36,0.0,1.0,89,0.00,,,0.05,0,weatherlink.com 1.10,2013-01-07 06:27:00,
2013-01-06 22:42:00,37.5,35.0,30.12,NE,36,0.0,1.0,89,0.00,,,0.05,0,weatherlink.com 1.10,2013-01-07 06:42:00,
2013-01-06 22:57:00,37.0,34.0,30.13,NE,36,0.0,2.0,89,0.00,,,0.05,0,weatherlink.com 1.10,2013-01-07 06:57:00,
2013-01-06 23:13:00,36.8,34.0,30.13,NE,36,0.0,0.0,89,0.00,,,0.05,0,weatherlink.com 1.10,2013-01-07 07:13:00,
2013-01-06 23:28:00,35.6,33.0,30.14,NE,36,0.0,0.0,89,0.00,,,0.05,0,weatherlink.com 1.10,2013-01-07 07:28:00,
2013-01-06 23:43:00,35.8,33.0,30.14,NE,36,0.0,2.0,89,0.00,,,0.05,0,weatherlink.com 1.10,2013-01-07 07:43:00,
2013-01-06 23:58:00,35.8,33.0,30.14,NE,36,0.0,1.0,89,0.00,,,0.05,0,weatherlink.com 1.10,2013-01-07 07:58:00,